Intercession City, Florida
Current Conditions -  °F | °C
As of 1:50 PM on Tuesday 27 Jan 2015 (Local Time) from KISM Reporting Station
Clear Clear  
Wind Chill: 66°   Ceiling: Unl
Heat Index: 66°   Visibility: 10mi
Dew Point: 41°   Wind: 20mph
Humidity: 40%   Direction: 280°W
Pressure: 29.95"   Gusts: 29mph
Location:  28.26°N, 81.51°W
Report Text: KISM 271850Z 28017G25KT 10SM SKC 19/05 A2995
Loading
Personal Weather Stations






























Interactive Weather Map New forecast layout! Learn more

10-Day Weather Forecast

Advertisements
Track Severe Weather on mobile